createdAt,value
2018-12-31T00:01:12.591Z,97695.70
2018-12-31T00:04:02.367Z,97693.00
2018-12-31T00:06:44.775Z,97691.44
2018-12-31T00:09:34.580Z,97680.81
2018-12-31T00:12:20.548Z,97685.11
2018-12-31T00:15:10.377Z,97683.09
2018-12-31T00:17:52.359Z,97687.68
2018-12-31T00:20:42.126Z,97688.13
2018-12-31T00:23:24.396Z,97692.34
2018-12-31T00:26:14.445Z,97694.63
2018-12-31T00:28:57.223Z,97692.95
2018-12-31T00:31:47.317Z,97689.22
2018-12-31T00:34:29.688Z,97698.05
2018-12-31T00:37:00.410Z,97689.96
2018-12-31T00:39:50.173Z,97688.13
2018-12-31T00:45:39.635Z,97685.84
2018-12-31T00:48:10.351Z,97692.05
2018-12-31T00:51:00.242Z,97691.66
2018-12-31T00:53:42.422Z,97687.00
2018-12-31T00:56:32.581Z,97686.16
2018-12-31T00:59:22.381Z,97692.90
2018-12-31T01:05:16.212Z,97695.77
2018-12-31T01:07:59.221Z,97696.84
2018-12-31T01:11:08.414Z,97712.39
2018-12-31T01:13:51.113Z,97707.66
2018-12-31T01:16:40.888Z,97712.96
2018-12-31T01:19:30.333Z,97707.50
2018-12-31T01:22:20.147Z,97701.77
2018-12-31T01:25:02.262Z,97691.78
2018-12-31T01:27:52.291Z,97711.95
2018-12-31T01:33:33.109Z,97731.22
2018-12-31T01:36:22.896Z,97737.39
2018-12-31T01:39:12.639Z,97731.30
2018-12-31T01:42:02.441Z,97700.94
2018-12-31T01:45:05.037Z,97719.07
2018-12-31T01:47:47.271Z,97717.05
2018-12-31T01:50:37.138Z,97725.40
2018-12-31T01:53:19.236Z,97722.16
2018-12-31T01:56:08.971Z,97721.42
2018-12-31T01:58:51.263Z,97716.56
2018-12-31T02:01:41.018Z,97712.52
2018-12-31T02:04:30.756Z,97716.81
2018-12-31T02:07:13.609Z,97696.70
2018-12-31T02:10:03.404Z,97713.87
2018-12-31T02:12:53.151Z,97699.47
2018-12-31T02:15:42.878Z,97715.60
2018-12-31T02:18:32.604Z,97694.02
2018-12-31T02:21:14.723Z,97707.60
2018-12-31T02:24:04.433Z,97690.87
2018-12-31T02:26:54.159Z,97694.05
2018-12-31T02:29:43.873Z,97693.88
2018-12-31T02:32:26.617Z,97693.95
2018-12-31T02:35:16.317Z,97698.06
2018-12-31T02:37:58.402Z,97693.56
2018-12-31T02:40:48.117Z,97692.17
2018-12-31T02:43:30.812Z,97694.42
2018-12-31T02:46:20.517Z,97664.93
2018-12-31T02:54:39.195Z,97702.58
2018-12-31T03:00:31.840Z,97697.19
2018-12-31T03:03:14.290Z,97689.96
2018-12-31T03:05:58.453Z,97681.06
2018-12-31T03:08:40.694Z,97661.70
2018-12-31T03:11:30.429Z,97684.19
2018-12-31T03:14:20.222Z,97675.93
2018-12-31T03:17:09.915Z,97645.58
2018-12-31T03:19:59.644Z,97644.91
2018-12-31T03:22:49.347Z,97636.02
2018-12-31T03:25:31.786Z,97650.30
2018-12-31T03:28:21.490Z,97652.68
2018-12-31T03:31:03.644Z,97646.80
2018-12-31T03:33:53.350Z,97647.06
2018-12-31T03:36:35.362Z,97616.27
2018-12-31T03:39:26.356Z,97641.22
2018-12-31T03:42:08.786Z,97650.78
2018-12-31T03:44:58.510Z,97653.80
2018-12-31T03:47:40.988Z,97652.26
2018-12-31T03:50:30.708Z,97649.23
2018-12-31T03:53:13.491Z,97642.44
2018-12-31T03:56:03.190Z,97650.91
2018-12-31T03:58:45.510Z,97647.70
2018-12-31T04:01:35.206Z,97656.05
2018-12-31T04:04:17.509Z,97656.98
2018-12-31T04:07:07.233Z,97651.14
2018-12-31T04:09:49.231Z,97646.19
2018-12-31T04:12:38.953Z,97640.86
2018-12-31T04:15:21.085Z,97643.37
2018-12-31T04:18:10.781Z,97636.30
2018-12-31T04:21:00.553Z,97641.89
2018-12-31T04:23:43.174Z,97638.71
2018-12-31T04:26:52.072Z,97640.54
2018-12-31T04:29:41.881Z,97639.19
2018-12-31T04:32:31.618Z,97633.05
2018-12-31T04:35:21.372Z,97638.99
2018-12-31T04:38:03.498Z,97628.45
2018-12-31T04:40:53.295Z,97627.72
2018-12-31T04:43:43.075Z,97628.88
2018-12-31T04:46:32.928Z,97626.69
2018-12-31T04:49:22.737Z,97615.23
2018-12-31T04:52:12.455Z,97635.94
2018-12-31T05:00:44.309Z,97634.88
2018-12-31T05:03:28.755Z,97631.37
2018-12-31T05:06:10.883Z,97632.57
2018-12-31T05:09:00.688Z,97634.66
2018-12-31T05:11:50.423Z,97635.81
2018-12-31T05:14:40.400Z,97625.45
2018-12-31T05:17:30.151Z,97643.98
2018-12-31T05:20:19.980Z,97644.88
2018-12-31T05:23:09.730Z,97649.36
2018-12-31T05:25:59.491Z,97640.88
2018-12-31T05:28:49.244Z,97639.72
2018-12-31T05:31:39.009Z,97641.88
2018-12-31T05:34:41.680Z,97641.00
2018-12-31T05:37:23.983Z,97636.61
2018-12-31T05:40:13.684Z,97618.47
2018-12-31T05:43:03.437Z,97618.13
2018-12-31T05:45:45.638Z,97617.85
2018-12-31T05:48:30.125Z,97619.75
2018-12-31T05:51:19.862Z,97649.42
2018-12-31T05:54:02.746Z,97644.70
2018-12-31T05:56:52.667Z,97646.66
2018-12-31T05:59:35.457Z,97650.71
2018-12-31T06:02:25.195Z,97654.92
2018-12-31T06:05:07.182Z,97651.25
2018-12-31T06:07:56.940Z,97633.84
2018-12-31T06:10:39.214Z,97643.38
2018-12-31T06:13:28.944Z,97634.25
2018-12-31T06:16:11.327Z,97626.55
2018-12-31T06:19:01.052Z,97625.02
2018-12-31T06:21:43.342Z,97623.25
2018-12-31T06:24:33.088Z,97625.69
2018-12-31T06:27:15.333Z,97625.95
2018-12-31T06:30:05.280Z,97640.47
2018-12-31T06:32:47.810Z,97626.38
2018-12-31T06:35:37.712Z,97645.47
2018-12-31T06:38:20.264Z,97638.11
2018-12-31T06:41:10.320Z,97639.59
2018-12-31T06:43:53.166Z,97642.97
2018-12-31T06:46:55.993Z,97637.83
2018-12-31T06:49:37.872Z,97642.83
2018-12-31T06:52:27.578Z,97639.17
2018-12-31T06:55:09.488Z,97643.09
2018-12-31T06:57:59.249Z,97651.00
2018-12-31T07:00:41.994Z,97636.17
2018-12-31T07:09:17.646Z,97676.28
2018-12-31T07:12:01.922Z,97686.75
2018-12-31T07:14:44.031Z,97675.47
2018-12-31T07:17:33.852Z,97679.71
2018-12-31T07:20:23.625Z,97666.31
2018-12-31T07:23:13.390Z,97673.44
2018-12-31T07:26:03.279Z,97659.57
2018-12-31T07:29:07.297Z,97654.63
2018-12-31T07:31:51.272Z,97649.49
2018-12-31T07:34:40.998Z,97673.86
2018-12-31T07:37:23.500Z,97669.08
2018-12-31T07:40:13.195Z,97666.16
2018-12-31T07:42:55.656Z,97669.81
2018-12-31T07:45:45.400Z,97668.66
2018-12-31T07:48:27.874Z,97664.61
2018-12-31T07:51:17.613Z,97655.30
2018-12-31T07:53:59.909Z,97676.69
2018-12-31T07:59:50.770Z,97673.56
2018-12-31T08:02:40.525Z,97676.93
2018-12-31T08:05:30.246Z,97682.26
2018-12-31T08:08:13.062Z,97691.03
2018-12-31T08:11:02.926Z,97674.38
2018-12-31T08:13:52.704Z,97673.12
2018-12-31T08:16:55.913Z,97677.36
2018-12-31T08:19:38.203Z,97674.66
2018-12-31T08:22:29.758Z,97677.84
2018-12-31T08:25:32.263Z,97678.94
2018-12-31T08:28:15.042Z,97679.48
2018-12-31T08:31:04.767Z,97665.23
2018-12-31T08:33:48.718Z,97679.27
2018-12-31T08:36:38.403Z,97681.57
2018-12-31T08:39:20.667Z,97681.50
2018-12-31T08:42:10.370Z,97690.11
2018-12-31T08:44:53.091Z,97696.21
2018-12-31T08:47:42.818Z,97699.03
2018-12-31T08:50:25.393Z,97686.76
2018-12-31T08:56:16.595Z,97714.44
2018-12-31T08:59:06.331Z,97715.31
2018-12-31T09:01:48.376Z,97716.05
2018-12-31T09:04:38.090Z,97724.70
2018-12-31T09:07:20.774Z,97728.42
2018-12-31T09:10:10.493Z,97730.73
2018-12-31T09:15:56.170Z,97751.06
2018-12-31T09:18:45.892Z,97739.68
2018-12-31T09:21:28.161Z,97740.95
2018-12-31T09:24:18.082Z,97742.92
2018-12-31T09:27:00.709Z,97745.73
2018-12-31T09:29:50.393Z,97742.41
2018-12-31T09:32:32.815Z,97742.05
2018-12-31T09:35:22.545Z,97745.77
2018-12-31T09:38:04.904Z,97741.05
2018-12-31T09:40:54.641Z,97739.17
2018-12-31T09:43:37.134Z,97735.63
2018-12-31T09:46:26.834Z,97741.69
2018-12-31T09:49:09.392Z,97727.06
2018-12-31T09:51:59.115Z,97744.88
2018-12-31T09:54:41.710Z,97740.80
2018-12-31T09:57:31.421Z,97741.69
2018-12-31T10:00:13.270Z,97738.34
2018-12-31T10:03:03.022Z,97745.10
2018-12-31T10:05:45.915Z,97736.44
2018-12-31T10:08:35.649Z,97743.75
2018-12-31T10:11:25.365Z,97733.74
2018-12-31T10:14:08.008Z,97708.02
2018-12-31T10:17:10.511Z,97734.55
2018-12-31T10:19:53.151Z,97725.05
2018-12-31T10:22:42.899Z,97723.86
2018-12-31T10:25:24.793Z,97717.17
2018-12-31T10:31:16.577Z,97703.39
2018-12-31T10:34:06.346Z,97698.53
2018-12-31T10:36:48.424Z,97692.27
2018-12-31T10:39:39.945Z,97691.37
2018-12-31T10:42:22.373Z,97689.14
2018-12-31T10:45:12.084Z,97688.50
2018-12-31T10:48:01.818Z,97665.70
2018-12-31T10:50:44.527Z,97665.45
2018-12-31T10:53:53.519Z,97678.09
2018-12-31T10:56:35.466Z,97673.16
2018-12-31T10:59:25.314Z,97671.63
2018-12-31T11:02:15.091Z,97640.29
2018-12-31T11:05:04.885Z,97664.69
2018-12-31T11:07:54.684Z,97663.67
2018-12-31T11:10:44.417Z,97665.11
2018-12-31T11:16:27.862Z,97665.66
2018-12-31T11:19:17.683Z,97671.28
2018-12-31T11:24:50.848Z,97667.80
2018-12-31T11:27:40.536Z,97663.66
2018-12-31T11:30:24.000Z,97654.35
2018-12-31T11:33:13.716Z,97649.48
2018-12-31T11:35:56.156Z,97637.69
2018-12-31T11:38:45.942Z,97634.34
2018-12-31T11:41:28.481Z,97612.24
2018-12-31T11:44:18.312Z,97625.44
2018-12-31T11:47:08.093Z,97630.67
2018-12-31T11:49:59.632Z,97628.84
2018-12-31T11:52:42.076Z,97628.92
2018-12-31T11:55:31.839Z,97625.43
2018-12-31T11:58:21.578Z,97621.37
2018-12-31T12:01:11.340Z,97624.79
2018-12-31T12:04:01.104Z,97597.42
2018-12-31T12:06:50.890Z,97614.58
2018-12-31T12:09:40.630Z,97625.05
2018-12-31T12:12:49.495Z,97621.48
2018-12-31T12:15:39.239Z,97617.95
2018-12-31T12:18:29.229Z,97616.08
2018-12-31T12:21:18.979Z,97616.23
2018-12-31T12:24:08.806Z,97608.66
2018-12-31T12:26:58.604Z,97577.42
2018-12-31T12:29:48.477Z,97598.72
2018-12-31T12:32:57.347Z,97601.92
2018-12-31T12:35:47.083Z,97594.23
2018-12-31T12:38:36.869Z,97574.81
2018-12-31T12:41:26.662Z,97595.32
2018-12-31T12:44:10.926Z,97602.13
2018-12-31T12:47:00.649Z,97595.98
2018-12-31T12:49:42.803Z,97596.78
2018-12-31T12:52:51.665Z,97598.31
2018-12-31T12:55:41.417Z,97598.06
2018-12-31T12:58:31.163Z,97593.61
2018-12-31T13:01:20.883Z,97568.02
2018-12-31T13:07:19.237Z,97579.14
2018-12-31T13:10:01.446Z,97579.75
2018-12-31T13:12:51.188Z,97565.81
2018-12-31T13:15:40.940Z,97574.47
2018-12-31T13:18:30.747Z,97566.49
2018-12-31T13:21:20.485Z,97573.08
2018-12-31T13:24:10.282Z,97547.69
2018-12-31T13:27:00.121Z,97574.52
2018-12-31T13:32:32.207Z,97581.67
2018-12-31T13:35:21.967Z,97582.63
2018-12-31T13:38:04.282Z,97583.78
2018-12-31T13:43:55.271Z,97580.68
2018-12-31T13:46:44.964Z,97582.13
2018-12-31T13:49:27.197Z,97583.54
2018-12-31T13:52:16.939Z,97584.75
2018-12-31T13:55:03.440Z,97585.21
2018-12-31T13:57:53.255Z,97576.16
2018-12-31T14:00:35.537Z,97589.88
2018-12-31T14:03:25.233Z,97587.36
2018-12-31T14:06:07.541Z,97584.90
2018-12-31T14:08:57.259Z,97589.93
2018-12-31T14:11:40.166Z,97591.19
2018-12-31T14:14:30.153Z,97595.55
2018-12-31T14:17:12.479Z,97598.20
2018-12-31T14:20:02.150Z,97599.32
2018-12-31T14:22:44.483Z,97604.84
2018-12-31T14:28:35.171Z,97589.23
2018-12-31T14:31:25.170Z,97584.36
2018-12-31T14:34:07.422Z,97583.10
2018-12-31T14:36:57.109Z,97587.85
2018-12-31T14:39:39.764Z,97591.58
2018-12-31T14:42:29.512Z,97582.33
2018-12-31T14:45:12.224Z,97573.18
2018-12-31T14:48:01.932Z,97581.77
2018-12-31T14:50:44.331Z,97578.81
2018-12-31T14:56:37.738Z,97601.33
2018-12-31T14:59:27.602Z,97604.99
2018-12-31T15:02:11.711Z,97604.56
2018-12-31T15:05:01.469Z,97597.98
2018-12-31T15:07:43.707Z,97606.16
2018-12-31T15:10:33.448Z,97604.98
2018-12-31T15:13:16.014Z,97606.99
2018-12-31T15:16:05.750Z,97604.67
2018-12-31T15:18:48.641Z,97603.22
2018-12-31T15:21:38.346Z,97575.33
2018-12-31T15:24:25.956Z,97594.94
2018-12-31T15:27:15.704Z,97586.45
2018-12-31T15:29:59.994Z,97562.84
2018-12-31T15:32:49.732Z,97578.59
2018-12-31T15:41:36.696Z,97588.30
2018-12-31T15:44:19.664Z,97571.63
2018-12-31T15:47:09.411Z,97593.72
2018-12-31T15:49:51.995Z,97587.63
2018-12-31T15:52:42.189Z,97597.05
2018-12-31T15:58:35.635Z,97606.63
2018-12-31T16:01:18.162Z,97607.70
2018-12-31T16:07:00.378Z,97612.62
2018-12-31T16:09:50.096Z,97614.72
2018-12-31T16:12:39.819Z,97614.09
2018-12-31T16:15:21.983Z,97610.02
2018-12-31T16:21:14.872Z,97614.04
2018-12-31T16:23:57.799Z,97629.76
2018-12-31T16:26:47.563Z,97620.95
2018-12-31T16:29:30.160Z,97623.48
2018-12-31T16:32:20.232Z,97633.35
2018-12-31T16:38:13.679Z,97631.67
2018-12-31T16:40:55.909Z,97631.13
2018-12-31T16:43:45.744Z,97632.84
2018-12-31T16:46:35.647Z,97626.34
2018-12-31T16:49:25.490Z,97634.36
2018-12-31T16:52:15.414Z,97629.58
2018-12-31T16:55:05.375Z,97629.42
2018-12-31T16:57:48.317Z,97632.77
2018-12-31T17:00:38.110Z,97633.02
2018-12-31T17:03:27.903Z,97632.78
2018-12-31T17:06:17.650Z,97639.47
2018-12-31T17:09:27.748Z,97644.15
2018-12-31T17:12:17.539Z,97636.97
2018-12-31T17:15:07.391Z,97644.11
2018-12-31T17:17:57.155Z,97648.70
2018-12-31T17:20:46.963Z,97651.81
2018-12-31T17:26:40.429Z,97632.84
2018-12-31T17:29:24.063Z,97656.41
2018-12-31T17:32:06.283Z,97649.26
2018-12-31T17:34:56.106Z,97648.05
2018-12-31T17:37:45.907Z,97653.11
2018-12-31T17:40:35.691Z,97652.39
2018-12-31T17:43:18.525Z,97657.36
2018-12-31T17:46:27.445Z,97650.13
2018-12-31T17:52:02.842Z,97651.73
2018-12-31T17:54:52.833Z,97657.24
2018-12-31T17:57:36.185Z,97666.20
2018-12-31T18:00:25.886Z,97665.72
2018-12-31T18:03:10.213Z,97639.22
2018-12-31T18:08:55.557Z,97641.60
2018-12-31T18:11:45.350Z,97615.10
2018-12-31T18:14:35.177Z,97635.61
2018-12-31T18:20:10.974Z,97653.36
2018-12-31T18:23:00.734Z,97639.25
2018-12-31T18:25:50.495Z,97642.52
2018-12-31T18:28:40.274Z,97643.72
2018-12-31T18:31:30.045Z,97650.33
2018-12-31T18:34:19.824Z,97644.66
2018-12-31T18:37:09.743Z,97646.34
2018-12-31T18:39:59.485Z,97642.52
2018-12-31T18:42:49.294Z,97648.50
2018-12-31T18:45:39.074Z,97644.52
2018-12-31T18:48:28.922Z,97651.98
2018-12-31T18:51:18.808Z,97642.36
2018-12-31T18:54:08.570Z,97646.80
2018-12-31T18:56:58.382Z,97644.17
2018-12-31T19:00:07.424Z,97649.11
2018-12-31T19:02:57.214Z,97654.61
2018-12-31T19:05:46.990Z,97652.76
2018-12-31T19:08:36.901Z,97643.08
2018-12-31T19:11:26.691Z,97656.77
2018-12-31T19:14:16.541Z,97649.11
2018-12-31T19:20:00.220Z,97671.50
2018-12-31T19:22:50.006Z,97669.08
2018-12-31T19:25:39.718Z,97676.01
2018-12-31T19:28:22.086Z,97683.02
2018-12-31T19:31:12.021Z,97672.18
2018-12-31T19:34:01.930Z,97665.34
2018-12-31T19:36:51.724Z,97661.94
2018-12-31T19:39:41.442Z,97662.86
2018-12-31T19:42:31.194Z,97666.27
2018-12-31T19:45:20.976Z,97670.05
2018-12-31T19:48:10.744Z,97666.92
2018-12-31T19:51:00.515Z,97661.89
2018-12-31T19:54:09.405Z,97666.24
2018-12-31T19:59:48.040Z,97650.36
2018-12-31T20:02:37.772Z,97650.68
2018-12-31T20:05:20.418Z,97643.55
2018-12-31T20:08:10.144Z,97638.97
2018-12-31T20:10:52.876Z,97630.77
2018-12-31T20:13:42.650Z,97637.63
2018-12-31T20:16:25.268Z,97630.48
2018-12-31T20:19:15.092Z,97626.91
2018-12-31T20:21:57.780Z,97629.11
2018-12-31T20:24:47.512Z,97633.97
2018-12-31T20:27:32.058Z,97646.37
2018-12-31T20:30:21.814Z,97640.03
2018-12-31T20:33:03.813Z,97632.05
2018-12-31T20:35:53.556Z,97634.77
2018-12-31T20:38:35.767Z,97631.09
2018-12-31T20:41:25.552Z,97631.77
2018-12-31T20:44:07.974Z,97635.55
2018-12-31T20:46:58.021Z,97631.77
2018-12-31T20:49:40.393Z,97631.07
2018-12-31T20:52:30.185Z,97628.48
2018-12-31T20:55:18.135Z,97632.61
2018-12-31T20:58:00.116Z,97629.14
2018-12-31T21:00:49.974Z,97632.64
2018-12-31T21:03:39.803Z,97633.22
2018-12-31T21:06:29.715Z,97637.59
2018-12-31T21:09:19.481Z,97636.09
2018-12-31T21:12:09.229Z,97637.25
2018-12-31T21:14:59.033Z,97624.14
2018-12-31T21:17:48.798Z,97633.99
2018-12-31T21:20:38.578Z,97634.14
2018-12-31T21:23:20.777Z,97629.98
2018-12-31T21:26:10.663Z,97633.17
2018-12-31T21:28:55.167Z,97631.11
2018-12-31T21:31:44.933Z,97632.67
2018-12-31T21:34:34.736Z,97627.28
2018-12-31T21:37:24.517Z,97635.17
2018-12-31T21:40:14.287Z,97634.72
2018-12-31T21:43:23.087Z,97632.27
2018-12-31T21:46:12.835Z,97630.77
2018-12-31T21:48:55.159Z,97625.46
2018-12-31T21:51:44.963Z,97631.31
2018-12-31T21:54:34.782Z,97636.23
2018-12-31T21:57:24.925Z,97638.50
2018-12-31T22:00:14.705Z,97638.09
2018-12-31T22:03:04.457Z,97643.23
2018-12-31T22:05:54.361Z,97645.00
2018-12-31T22:11:32.755Z,97625.94
2018-12-31T22:14:22.665Z,97623.86
2018-12-31T22:17:04.750Z,97613.63
2018-12-31T22:19:54.440Z,97611.91
2018-12-31T22:22:44.205Z,97614.58
2018-12-31T22:25:26.251Z,97613.63
2018-12-31T22:28:16.067Z,97606.30
2018-12-31T22:31:05.810Z,97601.17
2018-12-31T22:34:07.458Z,97596.98
2018-12-31T22:36:50.215Z,97603.61
2018-12-31T22:39:39.943Z,97610.69
2018-12-31T22:42:22.260Z,97595.55
2018-12-31T22:45:12.013Z,97602.17
2018-12-31T22:47:54.898Z,97593.81
2018-12-31T22:50:44.683Z,97577.98
2018-12-31T22:53:26.973Z,97585.46
2018-12-31T22:56:16.720Z,97594.21
2018-12-31T22:58:58.985Z,97592.85
2018-12-31T23:01:48.993Z,97588.45
2018-12-31T23:04:31.701Z,97586.02
2018-12-31T23:07:21.469Z,97570.83
2018-12-31T23:10:04.118Z,97563.93
2018-12-31T23:12:53.853Z,97568.91
2018-12-31T23:15:36.756Z,97590.03
2018-12-31T23:18:26.508Z,97588.25
2018-12-31T23:21:08.866Z,97589.99
2018-12-31T23:23:58.615Z,97590.57
2018-12-31T23:26:40.806Z,97572.00
2018-12-31T23:29:30.553Z,97592.76
2018-12-31T23:32:12.961Z,97593.62
2018-12-31T23:35:02.699Z,97589.66
2018-12-31T23:37:45.895Z,97586.02
2018-12-31T23:40:36.127Z,97577.83
2018-12-31T23:43:19.666Z,97577.98
2018-12-31T23:46:09.416Z,97587.12
2018-12-31T23:48:52.059Z,97567.69
2018-12-31T23:51:41.784Z,97589.32
2018-12-31T23:54:25.408Z,97587.31
